Babb, Montana
Current Conditions -  °F | °C
As of 8:56 PM on Monday 22 Dec 2014 (Local Time) from KCTB Reporting Station
Overcast Overcast  
Wind Chill: 18°   Ceiling: 9500
Heat Index: 27°   Visibility: 10mi
Dew Point: 20°   Wind: 9mph
Humidity: 75%   Direction: 290°WNW
Pressure: 30.11"   Gusts: NA
Location:  48.85°N, 113.44°W
Report Text: KCTB 230356Z AUTO 29008KT 10SM FEW065 OVC095 M03/M07 A3011 RMK AO2 SLP230 T10281067
Loading
Personal Weather Stations






























Interactive Weather Map New forecast layout! Learn more

10-Day Weather Forecast

Advertisements
Track Severe Weather on mobile